Ana Sayfa
METAR-TAF:

METAR-TAF

Havaalanları :

Kadala Havalimanı

Çita, Rusya

Enlem: 52-05N, Boylam: 113-29E, yükseklik: 685 m

Güncel hava durumu gözlemi

Rapor saat 15:30 UTC de 33 dakika önce yapıldı.
Rüzgar kuzeydoğudan 8 kt
Sıcaklık 14°C
Nem 44%
Basınç 1008 hPa
Görüş mesafesi 10 km veya daha fazla

METAR: UIAA 241530Z AUTO 04004MPS 9999 NCD 14/02 Q1008 RMK QFE698/0931

Saat: 01:03 (16:03 UTC)

Tahmin

Rapor saat 11:00 UTC de 5 saat ve 3 dakika önce yapıldı.
Ayın 24'si saat 12 UTC'den ayın 25'si saat 12 UTC'ye kadar geçerli Tahmin
Rüzgar güneydoğudan 6 kt
Görüş mesafesi 10 km veya daha fazla
3000 ft yükseklikte parçalı çok bulutlu, Kümülonimbus.
Geçici
ayın 24'si saat 12 UTC'den ayın 25'si saat 12 UTC'ye kadar
Rüzgar değişken yönden 12 kt
gök gürültülü fırtına, hafif yağmur

TAF: UIAA 241100Z 2412/2512 13003MPS 9999 BKN030CB TEMPO 2412/2512 VRB06MPS -TSRA

4.000'den fazla havaalanı için hava durumu gözlemleri ve tahminleri (METAR ve TAF raporları).

Kullanılabilir istasyonlar harita üzerinde sarı ve kırmızı noktalarla gösterilir.

İstasyonun adını görmek için fareyi noktanın üzerinde gezdirin.

Sonrasında hava gözlem ve tahminlerini görmek için tıklayın.

Haritayı değiştirmek için: yaklaştırmak için siyah artı işaretli yeşil düğmeye ve uzaklaştırmak için de eksi işaretli düğmeye hızla tıklayın; bitişik haritalar için yeşil okları kullanın.


METAR-TAF: